createdAt,value
2019-05-03T00:02:18.098Z,11.95
2019-05-03T00:04:47.122Z,13.68
2019-05-03T00:07:14.434Z,10.25
2019-05-03T00:09:42.683Z,11.08
2019-05-03T00:12:09.952Z,11.65
2019-05-03T00:14:41.607Z,10.88
2019-05-03T00:17:09.147Z,11.38
2019-05-03T00:19:36.634Z,12.50
2019-05-03T00:22:03.835Z,12.55
2019-05-03T00:24:32.144Z,11.63
2019-05-03T00:27:01.918Z,10.82
2019-05-03T00:29:29.814Z,14.13
2019-05-03T00:31:57.044Z,11.75
2019-05-03T00:34:29.216Z,13.15
2019-05-03T00:36:58.599Z,11.88
2019-05-03T00:39:34.176Z,13.98
2019-05-03T00:42:02.760Z,13.53
2019-05-03T00:44:31.715Z,18.00
2019-05-03T00:46:59.174Z,13.00
2019-05-03T00:49:26.797Z,14.53
2019-05-03T00:51:54.087Z,14.53
2019-05-03T00:54:22.295Z,10.45
2019-05-03T00:56:49.715Z,15.78
2019-05-03T00:59:17.510Z,14.45
2019-05-03T01:01:44.639Z,14.05
2019-05-03T01:04:12.459Z,12.55
2019-05-03T01:06:40.038Z,12.55
2019-05-03T01:09:14.829Z,11.05
2019-05-03T01:11:42.157Z,12.33
2019-05-03T01:14:11.897Z,14.23
2019-05-03T01:16:39.531Z,13.20
2019-05-03T01:19:07.087Z,13.45
2019-05-03T01:21:34.928Z,12.25
2019-05-03T01:24:02.238Z,17.27
2019-05-03T01:26:31.826Z,14.28
2019-05-03T01:28:59.189Z,14.50
2019-05-03T01:31:26.754Z,18.48
2019-05-03T01:33:54.620Z,12.70
2019-05-03T01:36:22.819Z,16.32
2019-05-03T01:38:52.990Z,14.13
2019-05-03T01:41:21.635Z,16.07
2019-05-03T01:43:49.907Z,15.05
2019-05-03T01:46:17.394Z,16.60
2019-05-03T01:49:03.141Z,15.70
2019-05-03T01:51:48.711Z,14.45
2019-05-03T01:54:15.966Z,15.65
2019-05-03T01:56:55.494Z,17.02
2019-05-03T01:59:12.388Z,17.05
2019-05-03T02:01:47.489Z,18.50
2019-05-03T02:04:24.588Z,20.62
2019-05-03T02:06:52.418Z,15.28
2019-05-03T02:09:21.549Z,16.17
2019-05-03T02:11:49.391Z,16.73
2019-05-03T02:14:17.926Z,15.95
2019-05-03T02:16:45.506Z,16.07
2019-05-03T02:19:13.179Z,13.28
2019-05-03T02:21:41.665Z,18.40
2019-05-03T02:24:09.313Z,15.53
2019-05-03T02:26:36.787Z,14.20
2019-05-03T02:29:04.273Z,16.60
2019-05-03T02:31:32.805Z,16.52
2019-05-03T02:34:03.274Z,17.25
2019-05-03T02:36:29.602Z,16.25
2019-05-03T02:38:57.263Z,16.32
2019-05-03T02:41:24.540Z,15.78
2019-05-03T02:43:55.802Z,20.05
2019-05-03T02:46:38.424Z,16.87
2019-05-03T02:49:25.925Z,19.95
2019-05-03T02:51:55.462Z,23.57
2019-05-03T02:54:22.931Z,17.35
2019-05-03T02:56:50.798Z,18.00
2019-05-03T02:59:18.439Z,21.25
2019-05-03T03:01:46.483Z,21.55
2019-05-03T03:04:15.673Z,18.20
2019-05-03T03:06:46.096Z,17.73
2019-05-03T03:09:16.548Z,20.95
2019-05-03T03:11:45.966Z,17.62
2019-05-03T03:14:16.724Z,26.52
2019-05-03T03:16:49.090Z,18.75
2019-05-03T03:19:16.779Z,18.20
2019-05-03T03:21:47.555Z,20.92
2019-05-03T03:24:18.966Z,24.00
2019-05-03T03:26:48.551Z,26.33
2019-05-03T03:29:17.867Z,21.60
2019-05-03T03:32:18.680Z,19.73
2019-05-03T03:35:00.609Z,18.17
2019-05-03T03:37:22.728Z,22.55
2019-05-03T03:39:50.067Z,21.23
2019-05-03T03:42:19.175Z,19.12
2019-05-03T03:44:47.928Z,22.15
2019-05-03T03:47:16.642Z,18.07
2019-05-03T03:49:46.396Z,19.62
2019-05-03T03:52:16.056Z,19.30
2019-05-03T03:54:45.848Z,24.60
2019-05-03T03:57:16.093Z,20.43
2019-05-03T03:59:45.490Z,23.77
2019-05-03T04:02:15.922Z,23.98
2019-05-03T04:04:45.104Z,23.25
2019-05-03T04:07:15.655Z,22.60
2019-05-03T04:09:45.380Z,20.97
2019-05-03T04:12:12.794Z,24.63
2019-05-03T04:14:56.363Z,16.17
2019-05-03T04:17:56.606Z,18.32
2019-05-03T04:20:28.280Z,20.17
2019-05-03T04:22:56.140Z,19.65
2019-05-03T04:25:26.200Z,18.50
2019-05-03T04:27:55.944Z,20.77
2019-05-03T04:30:25.430Z,18.87
2019-05-03T04:32:56.185Z,19.35
2019-05-03T04:35:22.677Z,17.35
2019-05-03T04:37:50.256Z,17.92
2019-05-03T04:40:17.462Z,17.57
2019-05-03T04:42:46.449Z,16.17
2019-05-03T04:45:16.269Z,18.05
2019-05-03T04:47:46.082Z,16.37
2019-05-03T04:50:12.972Z,18.60
2019-05-03T04:52:40.842Z,15.10
2019-05-03T04:55:08.175Z,17.80
2019-05-03T04:57:44.227Z,13.55
2019-05-03T05:00:07.004Z,13.18
2019-05-03T05:02:35.554Z,16.95
2019-05-03T05:05:05.828Z,17.95
2019-05-03T05:07:35.084Z,14.85
2019-05-03T05:10:05.160Z,19.15
2019-05-03T05:12:32.406Z,14.10
2019-05-03T05:14:59.970Z,17.55
2019-05-03T05:17:50.679Z,14.70
2019-05-03T05:20:35.061Z,18.05
2019-05-03T05:23:04.578Z,16.77
2019-05-03T05:25:36.258Z,15.32
2019-05-03T05:28:18.826Z,14.43
2019-05-03T05:30:46.723Z,16.80
2019-05-03T05:33:19.706Z,14.13
2019-05-03T05:35:47.694Z,17.62
2019-05-03T05:38:16.087Z,14.28
2019-05-03T05:40:45.089Z,19.15
2019-05-03T05:43:12.878Z,17.48
2019-05-03T05:45:40.098Z,17.15
2019-05-03T05:48:09.730Z,18.42
2019-05-03T05:50:40.214Z,17.32
2019-05-03T05:53:07.424Z,16.73
2019-05-03T05:55:52.236Z,17.82
2019-05-03T05:58:34.639Z,17.27
2019-05-03T06:01:16.383Z,18.45
2019-05-03T06:03:44.882Z,20.25
2019-05-03T06:06:17.755Z,16.32
2019-05-03T06:09:09.715Z,18.05
2019-05-03T06:11:47.694Z,20.90
2019-05-03T06:14:19.359Z,17.48
2019-05-03T06:17:05.359Z,21.57
2019-05-03T06:19:55.485Z,18.50
2019-05-03T06:22:49.474Z,16.20
2019-05-03T06:25:30.690Z,18.12
2019-05-03T06:27:59.634Z,14.28
2019-05-03T06:30:48.800Z,17.48
2019-05-03T06:33:16.343Z,17.55
2019-05-03T06:35:44.536Z,17.73
2019-05-03T06:38:12.726Z,17.32
2019-05-03T06:40:39.988Z,17.07
2019-05-03T06:43:11.199Z,15.60
2019-05-03T06:45:41.127Z,15.98
2019-05-03T06:48:06.378Z,12.98
2019-05-03T06:50:34.779Z,15.60
2019-05-03T06:53:05.889Z,15.98
2019-05-03T06:55:31.763Z,16.82
2019-05-03T06:57:58.987Z,11.95
2019-05-03T07:00:55.399Z,14.03
2019-05-03T07:03:44.691Z,13.95
2019-05-03T07:06:36.375Z,11.48
2019-05-03T07:09:14.447Z,12.63
2019-05-03T07:11:45.049Z,17.20
2019-05-03T07:14:11.996Z,14.07
2019-05-03T07:16:39.322Z,11.18
2019-05-03T07:19:07.203Z,12.68
2019-05-03T07:21:35.436Z,11.70
2019-05-03T07:24:05.289Z,14.95
2019-05-03T07:26:34.420Z,13.48
2019-05-03T07:29:01.760Z,14.28
2019-05-03T07:31:29.386Z,12.50
2019-05-03T07:33:56.967Z,11.75
2019-05-03T07:40:25.524Z,15.32
2019-05-03T07:42:52.899Z,15.88
2019-05-03T07:45:20.270Z,18.52
2019-05-03T07:47:47.704Z,15.00
2019-05-03T07:50:15.407Z,16.62
2019-05-03T07:52:45.121Z,17.62
2019-05-03T07:55:14.841Z,14.13
2019-05-03T07:57:50.619Z,14.45
2019-05-03T08:00:22.006Z,11.30
2019-05-03T08:02:49.199Z,13.85
2019-05-03T08:05:16.422Z,16.00
2019-05-03T08:07:44.470Z,12.88
2019-05-03T08:10:15.297Z,8.83
2019-05-03T08:12:45.132Z,7.97
2019-05-03T08:15:12.931Z,8.83
2019-05-03T08:17:40.380Z,8.13
2019-05-03T08:20:07.951Z,7.33
2019-05-03T08:22:35.815Z,9.35
2019-05-03T08:25:05.469Z,8.45
2019-05-03T08:27:35.355Z,7.53
2019-05-03T08:30:05.481Z,5.72
2019-05-03T08:32:51.812Z,11.00
2019-05-03T08:35:25.595Z,5.45
2019-05-03T08:37:55.331Z,7.15
2019-05-03T08:40:24.818Z,6.78
2019-05-03T08:42:54.837Z,7.22
2019-05-03T08:45:22.684Z,4.47
2019-05-03T08:47:49.945Z,6.33
2019-05-03T08:50:21.335Z,7.67
2019-05-03T08:52:48.022Z,5.28
2019-05-03T08:55:16.032Z,6.83
2019-05-03T08:57:44.754Z,6.78
2019-05-03T09:00:15.563Z,5.28
2019-05-03T09:02:44.770Z,6.05
2019-05-03T09:05:12.682Z,7.25
2019-05-03T09:07:39.918Z,8.05
2019-05-03T09:10:17.078Z,7.08
2019-05-03T09:13:04.163Z,10.40
2019-05-03T09:15:34.984Z,6.17
2019-05-03T09:18:04.650Z,7.58
2019-05-03T09:20:32.450Z,6.53
2019-05-03T09:23:00.534Z,6.30
2019-05-03T09:25:28.446Z,9.50
2019-05-03T09:27:56.299Z,4.28
2019-05-03T09:30:25.123Z,6.47
2019-05-03T09:32:52.750Z,7.25
2019-05-03T09:35:29.769Z,7.20
2019-05-03T09:37:49.148Z,7.50
2019-05-03T09:40:16.327Z,7.60
2019-05-03T09:42:44.526Z,6.95
2019-05-03T09:45:12.626Z,10.05
2019-05-03T09:47:40.511Z,11.68
2019-05-03T09:50:08.198Z,6.90
2019-05-03T09:52:36.828Z,6.12
2019-05-03T09:55:07.234Z,10.00
2019-05-03T09:57:34.802Z,6.10
2019-05-03T10:00:04.945Z,7.58
2019-05-03T10:02:32.698Z,5.87
2019-05-03T10:04:59.929Z,8.75
2019-05-03T10:07:27.090Z,12.58
2019-05-03T10:09:55.242Z,10.63
2019-05-03T10:12:25.536Z,7.22
2019-05-03T10:14:54.831Z,9.63
2019-05-03T10:17:48.220Z,7.20
2019-05-03T10:20:17.135Z,6.12
2019-05-03T10:22:44.411Z,8.35
2019-05-03T10:25:12.091Z,7.00
2019-05-03T10:27:46.001Z,8.68
2019-05-03T10:30:24.060Z,8.68
2019-05-03T10:32:57.239Z,7.50
2019-05-03T10:35:25.018Z,6.62
2019-05-03T10:37:54.915Z,6.17
2019-05-03T10:40:25.981Z,11.45
2019-05-03T10:42:55.278Z,5.75
2019-05-03T10:45:25.789Z,6.53
2019-05-03T10:47:52.459Z,8.33
2019-05-03T10:50:20.329Z,10.90
2019-05-03T10:53:00.285Z,4.67
2019-05-03T10:55:27.381Z,7.53
2019-05-03T10:58:26.195Z,4.60
2019-05-03T11:00:56.619Z,8.75
2019-05-03T11:03:23.271Z,10.23
2019-05-03T11:05:51.154Z,8.28
2019-05-03T11:08:19.023Z,6.03
2019-05-03T11:10:46.247Z,6.72
2019-05-03T11:13:15.426Z,6.15
2019-05-03T11:15:44.435Z,7.42
2019-05-03T11:18:12.052Z,4.70
2019-05-03T11:20:40.238Z,4.97
2019-05-03T11:23:07.854Z,5.78
2019-05-03T11:25:35.891Z,7.78
2019-05-03T11:28:10.227Z,5.70
2019-05-03T11:30:37.546Z,5.53
2019-05-03T11:33:09.316Z,5.75
2019-05-03T11:35:44.667Z,6.20
2019-05-03T11:38:26.951Z,5.42
2019-05-03T11:40:56.052Z,7.37
2019-05-03T11:43:24.691Z,6.17
2019-05-03T11:45:52.506Z,6.12
2019-05-03T11:48:19.920Z,3.98
2019-05-03T11:50:47.428Z,5.10
2019-05-03T11:53:14.894Z,7.08
2019-05-03T11:55:42.219Z,5.47
2019-05-03T11:58:21.092Z,3.10
2019-05-03T12:01:11.234Z,4.58
2019-05-03T12:03:30.424Z,5.65
2019-05-03T12:05:59.434Z,9.00
2019-05-03T12:08:27.050Z,6.95
2019-05-03T12:10:58.664Z,5.70
2019-05-03T12:13:29.504Z,6.58
2019-05-03T12:15:57.129Z,5.90
2019-05-03T12:18:25.155Z,8.88
2019-05-03T12:20:56.567Z,3.90
2019-05-03T12:23:25.393Z,5.90
2019-05-03T12:25:53.309Z,5.47
2019-05-03T12:28:21.323Z,4.95
2019-05-03T12:30:48.872Z,6.67
2019-05-03T12:33:16.146Z,6.00
2019-05-03T12:35:43.409Z,4.60
2019-05-03T12:38:11.500Z,6.60
2019-05-03T12:40:39.331Z,4.58
2019-05-03T12:43:07.123Z,7.97
2019-05-03T12:45:35.423Z,4.50
2019-05-03T12:48:04.883Z,3.17
2019-05-03T12:50:34.617Z,3.95
2019-05-03T12:53:01.754Z,6.67
2019-05-03T12:55:29.954Z,4.92
2019-05-03T12:57:57.204Z,4.78
2019-05-03T13:00:36.431Z,6.30
2019-05-03T13:03:08.512Z,5.65
2019-05-03T13:05:36.047Z,5.05
2019-05-03T13:08:30.319Z,4.33
2019-05-03T13:10:58.536Z,5.75
2019-05-03T13:13:26.127Z,6.70
2019-05-03T13:15:55.034Z,4.97
2019-05-03T13:18:22.423Z,5.45
2019-05-03T13:20:50.635Z,5.03
2019-05-03T13:23:18.506Z,5.80
2019-05-03T13:25:46.371Z,4.75
2019-05-03T13:28:15.317Z,6.28
2019-05-03T13:30:45.347Z,7.62
2019-05-03T13:33:14.976Z,8.25
2019-05-03T13:35:44.611Z,8.33
2019-05-03T13:38:12.180Z,5.80
2019-05-03T13:40:39.703Z,6.75
2019-05-03T13:43:07.292Z,8.35
2019-05-03T13:45:35.623Z,7.30
2019-05-03T13:48:04.973Z,4.40
2019-05-03T13:50:32.491Z,6.15
2019-05-03T13:52:59.976Z,6.65
2019-05-03T13:55:27.223Z,4.72
2019-05-03T13:57:54.919Z,7.25
2019-05-03T14:00:24.510Z,10.55
2019-05-03T14:02:51.917Z,7.78
2019-05-03T14:05:19.434Z,6.08
2019-05-03T14:07:47.346Z,8.05
2019-05-03T14:10:14.918Z,5.67
2019-05-03T14:12:42.554Z,6.33
2019-05-03T14:15:10.652Z,5.87
2019-05-03T14:17:37.854Z,6.17
2019-05-03T14:20:16.941Z,5.95
2019-05-03T14:22:45.414Z,7.67
2019-05-03T14:25:12.669Z,7.08
2019-05-03T14:27:39.866Z,9.70
2019-05-03T14:30:07.894Z,9.33
2019-05-03T14:32:36.859Z,8.25
2019-05-03T14:35:04.747Z,6.80
2019-05-03T14:37:32.335Z,9.08
2019-05-03T14:40:00.310Z,6.28
2019-05-03T14:42:28.203Z,9.43
2019-05-03T14:44:55.722Z,5.62
2019-05-03T14:47:25.236Z,8.83
2019-05-03T14:49:54.612Z,4.75
2019-05-03T14:52:22.647Z,6.97
2019-05-03T14:54:52.972Z,9.60
2019-05-03T14:57:27.611Z,9.85
2019-05-03T15:00:12.252Z,5.62
2019-05-03T15:02:52.358Z,5.12
2019-05-03T15:05:19.722Z,7.67
2019-05-03T15:07:49.480Z,6.53
2019-05-03T15:10:16.713Z,8.80
2019-05-03T15:12:45.166Z,7.90
2019-05-03T15:15:14.636Z,7.45
2019-05-03T15:17:42.346Z,7.75
2019-05-03T15:20:10.072Z,6.62
2019-05-03T15:22:37.251Z,6.40
2019-05-03T15:25:05.157Z,10.15
2019-05-03T15:27:35.269Z,6.55
2019-05-03T15:30:04.723Z,7.50
2019-05-03T15:32:31.643Z,6.37
2019-05-03T15:34:59.211Z,8.18
2019-05-03T15:37:27.090Z,6.20
2019-05-03T15:39:54.743Z,7.08
2019-05-03T15:42:23.165Z,7.28
2019-05-03T15:44:58.218Z,7.60
2019-05-03T15:47:35.789Z,6.65
2019-05-03T15:50:04.848Z,6.22
2019-05-03T15:52:32.222Z,7.28
2019-05-03T15:55:00.626Z,7.47
2019-05-03T15:57:27.846Z,7.05
2019-05-03T15:59:55.420Z,6.10
2019-05-03T16:02:24.717Z,6.90
2019-05-03T16:04:52.418Z,6.58
2019-05-03T16:07:19.679Z,6.55
2019-05-03T16:09:46.925Z,6.97
2019-05-03T16:12:15.099Z,8.80
2019-05-03T16:14:44.433Z,9.55
2019-05-03T16:17:12.274Z,10.53
2019-05-03T16:19:39.835Z,6.72
2019-05-03T16:22:07.506Z,6.37
2019-05-03T16:24:35.702Z,9.75
2019-05-03T16:27:14.330Z,5.92
2019-05-03T16:29:44.566Z,7.47
2019-05-03T16:32:12.007Z,7.37
2019-05-03T16:34:39.567Z,10.20
2019-05-03T16:37:06.768Z,6.00
2019-05-03T16:39:35.294Z,5.90
2019-05-03T16:42:04.278Z,9.13
2019-05-03T16:44:35.015Z,10.35
2019-05-03T16:47:06.981Z,8.93
2019-05-03T16:49:32.030Z,7.00
2019-05-03T16:51:59.603Z,10.18
2019-05-03T16:54:27.875Z,10.63
2019-05-03T16:56:56.935Z,11.63
2019-05-03T16:59:24.801Z,9.08
2019-05-03T17:01:52.497Z,9.05
2019-05-03T17:04:27.591Z,12.63
2019-05-03T17:07:11.619Z,14.30
2019-05-03T17:09:42.760Z,9.50
2019-05-03T17:12:25.532Z,8.78
2019-05-03T17:14:54.704Z,10.82
2019-05-03T17:17:25.190Z,10.98
2019-05-03T17:19:54.981Z,12.80
2019-05-03T17:22:25.029Z,10.70
2019-05-03T17:24:52.026Z,11.73
2019-05-03T17:27:19.922Z,9.75
2019-05-03T17:29:47.043Z,16.05
2019-05-03T17:32:15.348Z,10.50
2019-05-03T17:34:43.086Z,8.05
2019-05-03T17:37:11.035Z,14.30
2019-05-03T17:40:16.590Z,10.40
2019-05-03T17:43:02.196Z,11.90
2019-05-03T17:45:35.085Z,9.88
2019-05-03T17:48:04.497Z,11.25
2019-05-03T17:50:32.375Z,8.38
2019-05-03T17:53:22.123Z,11.70
